Flight Track Log - Related Links

Times and Time Zones

All times are in EST time to prevent confusion due to time zone crossing. See the AFL150 flight status page for this flight to view local times or setup timezone preferences in your user account.

Time Position Orientation Groundspeed Altitude Reporting Facility
EST Latitude Longitude Course Direction KTS MPH feet Rate Location/Type
Tue 08:06:00 56.0860 37.1405 320° Northwest  Level FlightAware Approximate
Tue 08:07:00 56.1766 37.0052 320° Northwest  Level FlightAware Approximate
Tue 08:08:00 56.2671 36.8693 320° Northwest  Level FlightAware Approximate
Tue 08:09:00 56.3575 36.7327 320° Northwest  Level FlightAware Approximate
Tue 08:10:00 56.4477 36.5955 320° Northwest  Level FlightAware Approximate
Tue 08:11:00 56.5378 36.4576 320° Northwest  Level FlightAware Approximate
Tue 08:12:00 56.6277 36.3191 320° Northwest  Level FlightAware Approximate
Tue 08:13:00 56.7174 36.1800 320° Northwest  Level FlightAware Approximate
Tue 08:14:00 56.8070 36.0401 320° Northwest  Level FlightAware Approximate
Tue 08:15:00 56.8965 35.8996 319° Northwest  Level FlightAware Approximate
Tue 08:16:00 56.9857 35.7584 319° Northwest  Level FlightAware Approximate
Tue 08:17:00 57.0749 35.6165 319° Northwest  Level FlightAware Approximate
Tue 08:18:00 57.1638 35.4740 319° Northwest  Level FlightAware Approximate
Tue 08:19:00 57.2526 35.3307 319° Northwest  Level FlightAware Approximate
Tue 08:20:00 57.3413 35.1868 319° Northwest  Level FlightAware Approximate
Tue 08:21:00 57.4297 35.0422 319° Northwest  Level FlightAware Approximate
Tue 08:22:00 57.5180 34.8968 319° Northwest  Level FlightAware Approximate
Tue 08:23:00 57.5850 34.7160 315° West  Level Estimated
Tue 08:24:00 57.6688 34.5611 315° West  Level FlightAware Approximate
Tue 08:25:00 57.7524 34.4054 315° West  Level FlightAware Approximate
Tue 08:26:00 57.8358 34.2491 315° West  Level FlightAware Approximate
Tue 08:27:00 57.9191 34.0920 315° West  Level FlightAware Approximate
Tue 08:28:00 58.0021 33.9342 315° West  Level FlightAware Approximate
Tue 08:29:00 58.0849 33.7757 315° West  Level FlightAware Approximate
Tue 08:30:00 58.1676 33.6164 315° West  Level FlightAware Approximate
Tue 08:31:00 58.2500 33.4564 314° West  Level FlightAware Approximate
Tue 08:32:00 58.3323 33.2957 314° West  Level FlightAware Approximate
Tue 08:33:00 58.4143 33.1342 314° West  Level FlightAware Approximate
Tue 08:34:00 58.4962 32.9719 314° West  Level FlightAware Approximate
Tue 08:35:00 58.5778 32.8089 314° West  Level FlightAware Approximate
Tue 08:36:00 58.6592 32.6451 314° West  Level FlightAware Approximate
Tue 08:37:00 58.7404 32.4806 314° West  Level FlightAware Approximate
Tue 08:38:00 58.8214 32.3153 313° West  Level FlightAware Approximate
Tue 08:39:00 58.9022 32.1492 313° West  Level FlightAware Approximate
Tue 08:40:00 58.9828 31.9823 313° West  Level FlightAware Approximate
Tue 08:41:00 59.0631 31.8147 313° West  Level FlightAware Approximate
Tue 08:42:00 59.1433 31.6462 313° West  Level FlightAware Approximate
Tue 08:43:00 59.2232 31.4770 313° West  Level FlightAware Approximate
Tue 08:44:00 59.3029 31.3070 313° West  Level FlightAware Approximate
Tue 08:45:00 59.3824 31.1362 312° West  Level FlightAware Approximate
Tue 08:46:00 59.4617 30.9646 312° West  Level FlightAware Approximate
Tue 08:47:00 59.5407 30.7922 312° West  Level FlightAware Approximate
Tue 08:48:00 59.6195 30.6190 312° West  Level FlightAware Approximate
Tue 08:49:00 59.6981 30.4449 312° West  Level FlightAware Approximate
Tue 08:50:00 59.7764 30.2701 312° West  Level FlightAware Approximate
Tue 08:51:00 59.8545 30.0944 312° West  Level FlightAware Approximate
Tue 08:52:00 59.9324 29.9179 311° West  Level FlightAware Approximate
Tue 08:53:00 60.0100 29.7406 311° West  Level FlightAware Approximate
Tue 08:54:00 60.0691 29.5363 311° West  Level Estimated
Tue 08:55:00 60.1457 29.3563 311° West  Level FlightAware Approximate
Tue 08:56:00 60.2219 29.1754 310° West  Level FlightAware Approximate
Tue 08:57:00 60.2980 28.9937 310° West  Level FlightAware Approximate
Tue 08:58:00 60.3737 28.8112 310° West  Level FlightAware Approximate
Tue 08:59:00 60.4492 28.6278 310° West  Level FlightAware Approximate
Tue 09:00:00 60.5245 28.4436 310° West  Level FlightAware Approximate
Tue 09:01:00 60.5995 28.2584 310° West  Level FlightAware Approximate
Tue 09:02:00 60.6743 28.0725 309° West  Level FlightAware Approximate
Tue 09:03:00 60.7488 27.8857 309° West  Level FlightAware Approximate
Tue 09:04:00 60.8230 27.6980 309° West  Level FlightAware Approximate
Tue 09:05:00 60.8970 27.5094 309° West  Level FlightAware Approximate
Tue 09:06:00 60.9707 27.3200 309° West  Level FlightAware Approximate
Tue 09:07:00 61.0441 27.1296 309° West  Level FlightAware Approximate
Tue 09:08:00 61.1173 26.9384 308° West  Level FlightAware Approximate
Tue 09:09:00 61.1902 26.7463 308° West  Level FlightAware Approximate
Tue 09:10:00 61.2628 26.5534 308° West  Level FlightAware Approximate
Tue 09:11:00 61.3352 26.3595 308° West  Level FlightAware Approximate
Tue 09:12:00 61.4072 26.1647 308° West  Level FlightAware Approximate
Tue 09:13:00 61.4790 25.9691 308° West  Level FlightAware Approximate
Tue 09:14:00 61.5505 25.7725 307° West  Level FlightAware Approximate
Tue 09:15:00 61.6218 25.5750 307° West  Level FlightAware Approximate
Tue 09:16:00 61.6927 25.3766 307° West  Level FlightAware Approximate
Tue 09:17:00 61.7634 25.1773 307° West  Level FlightAware Approximate
Tue 09:18:00 61.8337 24.9771 307° West  Level FlightAware Approximate
Tue 09:19:00 61.9038 24.7760 307° West  Level FlightAware Approximate
Tue 09:20:00 61.9736 24.5739 306° West  Level FlightAware Approximate
Tue 09:21:00 62.0430 24.3710 306° West  Level FlightAware Approximate
Tue 09:22:00 62.1122 24.1671 306° West  Level FlightAware Approximate
Tue 09:23:00 62.1811 23.9622 306° West  Level FlightAware Approximate
Tue 09:24:00 62.2497 23.7565 306° West  Level FlightAware Approximate
Tue 09:25:00 62.3180 23.5498 305° West  Level FlightAware Approximate
Tue 09:26:00 62.3859 23.3421 305° West  Level FlightAware Approximate
Tue 09:27:00 62.4536 23.1336 305° West  Level FlightAware Approximate
Tue 09:28:00 62.5209 22.9240 305° West  Level FlightAware Approximate
Tue 09:29:00 62.5879 22.7135 305° West  Level FlightAware Approximate
Tue 09:30:00 62.6546 22.5021 305° West  Level FlightAware Approximate
Tue 09:31:00 62.7210 22.2897 304° West  Level FlightAware Approximate
Tue 09:32:00 62.7871 22.0764 304° West  Level FlightAware Approximate
Tue 09:33:00 62.8528 21.8621 304° West  Level FlightAware Approximate
Tue 09:34:00 62.9182 21.6469 304° West  Level FlightAware Approximate
Tue 09:35:00 62.9833 21.4307 304° West  Level FlightAware Approximate
Tue 09:36:00 63.0481 21.2135 303° West  Level FlightAware Approximate
Tue 09:37:00 63.1125 20.9954 303° West  Level FlightAware Approximate
Tue 09:38:00 63.1766 20.7763 303° West  Level FlightAware Approximate
Tue 09:39:00 63.2403 20.5562 303° West  Level FlightAware Approximate
Tue 09:40:00 63.3037 20.3351 303° West  Level FlightAware Approximate
Tue 09:41:00 63.3668 20.1131 302° West  Level FlightAware Approximate
Tue 09:42:00 63.4295 19.8902 302° West  Level FlightAware Approximate
Tue 09:43:00 63.4918 19.6662 302° West  Level FlightAware Approximate
Tue 09:44:00 63.5538 19.4412 302° West  Level FlightAware Approximate
Tue 09:45:00 63.6155 19.2153 302° West  Level FlightAware Approximate
Tue 09:46:00 63.6768 18.9884 301° West  Level FlightAware Approximate
Tue 09:47:00 63.7377 18.7605 301° West  Level FlightAware Approximate
Tue 09:48:00 63.7983 18.5317 301° West  Level FlightAware Approximate
Tue 09:49:00 63.8585 18.3018 301° West  Level FlightAware Approximate
Tue 09:50:00 63.9184 18.0710 301° West  Level FlightAware Approximate
Tue 09:51:00 63.9779 17.8392 300° West  Level FlightAware Approximate
Tue 09:52:00 64.0370 17.6064 300° West  Level FlightAware Approximate
Tue 09:53:00 64.0957 17.3726 300° West  Level FlightAware Approximate
Tue 09:54:00 64.1541 17.1379 300° West  Level FlightAware Approximate
Tue 09:55:00 64.2121 16.9021 300° West  Level FlightAware Approximate
Tue 09:56:00 64.2697 16.6654 299° West  Level FlightAware Approximate
Tue 09:57:00 64.3269 16.4277 299° West  Level FlightAware Approximate
Tue 09:58:00 64.3837 16.1889 299° West  Level FlightAware Approximate
Tue 09:59:00 64.4401 15.9493 299° West  Level FlightAware Approximate
Tue 10:00:00 64.4962 15.7086 298° West  Level FlightAware Approximate
Tue 10:01:00 64.5518 15.4669 298° West  Level FlightAware Approximate
Tue 10:02:00 64.6071 15.2242 298° West  Level FlightAware Approximate
Tue 10:03:00 64.6620 14.9806 298° West  Level FlightAware Approximate
Tue 10:04:00 64.7164 14.7360 298° West  Level FlightAware Approximate
Tue 10:05:00 64.7705 14.4904 297° West  Level FlightAware Approximate
Tue 10:06:00 64.8241 14.2438 297° West  Level FlightAware Approximate
Tue 10:07:00 64.8773 13.9962 297° West  Level FlightAware Approximate
Tue 10:08:00 64.9302 13.7477 297° West  Level FlightAware Approximate
Tue 10:09:00 64.9826 13.4982 297° West  Level FlightAware Approximate
Tue 10:10:00 65.0346 13.2477 296° West  Level FlightAware Approximate
Tue 10:11:00 65.0861 12.9962 296° West  Level FlightAware Approximate
Tue 10:12:00 65.1373 12.7437 296° West  Level FlightAware Approximate
Tue 10:13:00 65.1880 12.4903 296° West  Level FlightAware Approximate
Tue 10:14:00 65.2383 12.2359 295° West  Level FlightAware Approximate
Tue 10:15:00 65.2881 11.9806 295° West  Level FlightAware Approximate
Tue 10:16:00 65.3375 11.7243 295° West  Level FlightAware Approximate
Tue 10:17:00 65.3865 11.4670 295° West  Level FlightAware Approximate
Tue 10:18:00 65.4351 11.2088 294° West  Level FlightAware Approximate
Tue 10:19:00 65.4832 10.9496 294° West  Level FlightAware Approximate
Tue 10:20:00 65.5308 10.6895 294° West  Level FlightAware Approximate
Tue 10:21:00 65.5780 10.4284 294° West  Level FlightAware Approximate
Tue 10:22:00 65.6248 10.1663 293° West  Level FlightAware Approximate
Tue 10:23:00 65.6711 9.9034 293° West  Level FlightAware Approximate
Tue 10:24:00 65.7170 9.6395 293° West  Level FlightAware Approximate
Tue 10:25:00 65.7624 9.3746 293° West  Level FlightAware Approximate
Tue 10:26:00 65.8073 9.1088 293° West  Level FlightAware Approximate
Tue 10:27:00 65.8518 8.8421 292° West  Level FlightAware Approximate
Tue 10:28:00 65.8958 8.5745 292° West  Level FlightAware Approximate
Tue 10:29:00 65.9394 8.3060 292° West  Level FlightAware Approximate
Tue 10:30:00 65.9824 8.0365 292° West  Level FlightAware Approximate
Tue 10:31:00 66.0250 7.7662 291° West  Level FlightAware Approximate
Tue 10:32:00 66.0672 7.4949 291° West  Level FlightAware Approximate
Tue 10:33:00 66.1088 7.2228 291° West  Level FlightAware Approximate
Tue 10:34:00 66.1500 6.9498 291° West  Level FlightAware Approximate
Tue 10:35:00 66.1907 6.6758 290° West  Level FlightAware Approximate
Tue 10:36:00 66.2309 6.4010 290° West  Level FlightAware Approximate
Tue 10:37:00 66.2706 6.1254 290° West  Level FlightAware Approximate
Tue 10:38:00 66.3098 5.8488 290° West  Level FlightAware Approximate
Tue 10:39:00 66.3485 5.5715 289° West  Level FlightAware Approximate
Tue 10:40:00 66.3868 5.2932 289° West  Level FlightAware Approximate
Tue 10:41:00 66.4245 5.0141 289° West  Level FlightAware Approximate
Tue 10:42:00 66.4617 4.7342 289° West  Level FlightAware Approximate
Tue 10:43:00 66.4985 4.4534 288° West  Level FlightAware Approximate
Tue 10:44:00 66.5347 4.1719 288° West  Level FlightAware Approximate
Tue 10:45:00 66.5704 3.8895 288° West  Level FlightAware Approximate
Tue 10:46:00 66.6057 3.6062 288° West  Level FlightAware Approximate
Tue 10:47:00 66.6404 3.3222 287° West  Level FlightAware Approximate
Tue 10:48:00 66.6746 3.0374 287° West  Level FlightAware Approximate
Tue 10:49:00 66.7082 2.7518 287° West  Level FlightAware Approximate
Tue 10:50:00 66.7414 2.4655 286° West  Level FlightAware Approximate
Tue 10:51:00 66.7740 2.1784 286° West  Level FlightAware Approximate
Tue 10:52:00 66.8061 1.8905 286° West  Level FlightAware Approximate
Tue 10:53:00 66.8377 1.6019 286° West  Level FlightAware Approximate
Tue 10:54:00 66.8688 1.3125 285° West  Level FlightAware Approximate
Tue 10:55:00 66.8993 1.0224 285° West  Level FlightAware Approximate
Tue 10:56:00 66.9293 0.7316 285° West  Level FlightAware Approximate
Tue 10:57:00 66.9588 0.4401 285° West  Level FlightAware Approximate
Tue 10:58:00 66.9877 0.1479 284° West  Level FlightAware Approximate
Tue 10:59:00 67.0161 -0.1451 284° West  Level FlightAware Approximate
Tue 11:00:00 67.0439 -0.4387 284° West  Level FlightAware Approximate
Tue 11:01:00 67.0713 -0.7329 284° West  Level FlightAware Approximate
Tue 11:02:00 67.0980 -1.0278 283° West  Level FlightAware Approximate
Tue 11:03:00 67.1242 -1.3234 283° West  Level FlightAware Approximate
Tue 11:04:00 67.1499 -1.6196 283° West  Level FlightAware Approximate
Tue 11:05:00 67.1750 -1.9164 282° West  Level FlightAware Approximate
Tue 11:06:00 67.1996 -2.2138 282° West  Level FlightAware Approximate
Tue 11:07:00 67.2236 -2.5119 282° West  Level FlightAware Approximate
Tue 11:08:00 67.2471 -2.8105 282° West  Level FlightAware Approximate
Tue 11:09:00 67.2700 -3.1097 281° West  Level FlightAware Approximate
Tue 11:10:00 67.2924 -3.4095 281° West  Level FlightAware Approximate
Tue 11:11:00 67.3142 -3.7098 281° West  Level FlightAware Approximate
Tue 11:12:00 67.3354 -4.0107 281° West  Level FlightAware Approximate
Tue 11:13:00 67.3561 -4.3120 280° West  Level FlightAware Approximate
Tue 11:14:00 67.3762 -4.6139 280° West  Level FlightAware Approximate
Tue 11:15:00 67.3957 -4.9163 280° West  Level FlightAware Approximate
Tue 11:16:00 67.4147 -5.2192 279° West  Level FlightAware Approximate
Tue 11:17:00 67.4331 -5.5226 279° West  Level FlightAware Approximate
Tue 11:18:00 67.4509 -5.8264 279° West  Level FlightAware Approximate
Tue 11:19:00 67.4682 -6.1307 279° West  Level FlightAware Approximate
Tue 11:20:00 67.4849 -6.4354 278° West  Level FlightAware Approximate
Tue 11:21:00 67.5010 -6.7406 278° West  Level FlightAware Approximate
Tue 11:22:00 67.5165 -7.0461 278° West  Level FlightAware Approximate
Tue 11:23:00 67.5315 -7.3520 277° West  Level FlightAware Approximate
Tue 11:24:00 67.5459 -7.6583 277° West  Level FlightAware Approximate
Tue 11:25:00 67.5597 -7.9650 277° West  Level FlightAware Approximate
Tue 11:26:00 67.5729 -8.2720 277° West  Level FlightAware Approximate
Tue 11:27:00 67.5856 -8.5794 276° West  Level FlightAware Approximate
Tue 11:28:00 67.5976 -8.8871 276° West  Level FlightAware Approximate
Tue 11:29:00 67.6091 -9.1951 276° West  Level FlightAware Approximate
Tue 11:30:00 67.6200 -9.5034 275° West  Level FlightAware Approximate
Tue 11:31:00 67.6303 -9.8119 275° West  Level FlightAware Approximate
Tue 11:32:00 67.6401 -10.1207 275° West  Level FlightAware Approximate
Tue 11:33:00 67.6492 -10.4298 275° West  Level FlightAware Approximate
Tue 11:34:00 67.6578 -10.7391 274° West  Level FlightAware Approximate
Tue 11:35:00 67.6657 -11.0486 274° West  Level FlightAware Approximate
Tue 11:36:00 67.6731 -11.3583 274° West  Level FlightAware Approximate
Tue 11:37:00 67.6799 -11.6683 273° West  Level FlightAware Approximate
Tue 11:38:00 67.6861 -11.9783 273° West  Level FlightAware Approximate
Tue 11:39:00 67.6917 -12.2886 273° West  Level FlightAware Approximate
Tue 11:40:00 67.6967 -12.5990 273° West  Level FlightAware Approximate
Tue 11:41:00 67.7012 -12.9095 272° West  Level FlightAware Approximate
Tue 11:42:00 67.7050 -13.2201 272° West  Level FlightAware Approximate
Tue 11:43:00 67.7083 -13.5308 272° West  Level FlightAware Approximate
Tue 11:44:00 67.7109 -13.8416 271° West  Level FlightAware Approximate
Tue 11:45:00 67.7130 -14.1524 271° West  Level FlightAware Approximate
Tue 11:46:00 67.7145 -14.4633 271° West  Level FlightAware Approximate
Tue 11:47:00 67.7153 -14.7742 271° West  Level FlightAware Approximate
Tue 11:48:00 67.7156 -15.0852 270° West  Level FlightAware Approximate
Tue 11:49:00 67.7153 -15.3961 270° West  Level FlightAware Approximate
Tue 11:50:00 67.7144 -15.7070 270° West  Level FlightAware Approximate
Tue 11:51:00 67.7130 -16.0179 269° West  Level FlightAware Approximate
Tue 11:52:00 67.7109 -16.3288 269° West  Level FlightAware Approximate
Tue 11:53:00 67.7082 -16.6395 269° West  Level FlightAware Approximate
Tue 11:54:00 67.7049 -16.9502 269° West  Level FlightAware Approximate
Tue 11:55:00 67.7011 -17.2609 268° West  Level FlightAware Approximate
Tue 11:56:00 67.6967 -17.5714 268° West  Level FlightAware Approximate
Tue 11:57:00 67.6916 -17.8817 268° West  Level FlightAware Approximate
Tue 11:58:00 67.6860 -18.1920 267° West  Level FlightAware Approximate
Tue 11:59:00 67.6798 -18.5020 267° West  Level FlightAware Approximate
Tue 12:00:00 67.6730 -18.8120 267° West  Level FlightAware Approximate
Tue 12:01:00 67.6656 -19.1217 267° West  Level FlightAware Approximate
Tue 12:02:00 67.6576 -19.4312 266° West  Level FlightAware Approximate
Tue 12:03:00 67.6491 -19.7405 266° West  Level FlightAware Approximate
Tue 12:04:00 67.6399 -20.0496 266° West  Level FlightAware Approximate
Tue 12:05:00 67.6302 -20.3584 265° West  Level FlightAware Approximate
Tue 12:06:00 67.6199 -20.6669 265° West  Level FlightAware Approximate
Tue 12:07:00 67.6089 -20.9752 265° West  Level FlightAware Approximate
Tue 12:08:00 67.5975 -21.2832 265° West  Level FlightAware Approximate
Tue 12:09:00 67.5854 -21.5909 264° West  Level FlightAware Approximate
Tue 12:10:00 67.5727 -21.8983 264° West  Level FlightAware Approximate
Tue 12:11:00 67.5595 -22.2053 264° West  Level FlightAware Approximate
Tue 12:12:00 67.5456 -22.5119 263° West  Level FlightAware Approximate
Tue 12:13:00 67.5312 -22.8183 263° West  Level FlightAware Approximate
Tue 12:14:00 67.5163 -23.1242 263° West  Level FlightAware Approximate
Tue 12:15:00 67.5007 -23.4297 263° West  Level FlightAware Approximate
Tue 12:16:00 67.4846 -23.7348 262° West  Level FlightAware Approximate
Tue 12:17:00 67.4679 -24.0395 262° West  Level FlightAware Approximate
Tue 12:18:00 67.4506 -24.3438 262° West  Level FlightAware Approximate
Tue 12:19:00 67.4328 -24.6476 261° West  Level FlightAware Approximate
Tue 12:20:00 67.4144 -24.9510 261° West  Level FlightAware Approximate
Tue 12:21:00 67.3954 -25.2539 261° West  Level FlightAware Approximate
Tue 12:22:00 67.3758 -25.5563 261° West  Level FlightAware Approximate
Tue 12:23:00 67.3557 -25.8582 260° West  Level FlightAware Approximate
Tue 12:24:00 67.3351 -26.1595 260° West  Level FlightAware Approximate
Tue 12:25:00 67.3138 -26.4604 260° West  Level FlightAware Approximate
Tue 12:26:00 67.2920 -26.7607 259° West  Level FlightAware Approximate
Tue 12:27:00 67.2697 -27.0604 259° West  Level FlightAware Approximate
Tue 12:28:00 67.2467 -27.3596 259° West  Level FlightAware Approximate
Tue 12:29:00 67.2233 -27.6583 259° West  Level FlightAware Approximate
Tue 12:30:00 67.1992 -27.9563 258° West  Level FlightAware Approximate
Tue 12:31:00 67.1746 -28.2537 258° West  Level FlightAware Approximate
Tue 12:32:00 67.1495 -28.5505 258° West  Level FlightAware Approximate
Tue 12:33:00 67.1238 -28.8467 258° West  Level FlightAware Approximate
Tue 12:34:00 67.0976 -29.1423 257° West  Level FlightAware Approximate
Tue 12:35:00 67.0708 -29.4372 257° West  Level FlightAware Approximate
Tue 12:36:00 67.0435 -29.7314 257° West  Level FlightAware Approximate
Tue 12:37:00 67.0156 -30.0250 256° West  Level FlightAware Approximate
Tue 12:38:00 66.9872 -30.3179 256° West  Level FlightAware Approximate
Tue 12:39:00 66.9583 -30.6101 256° West  Level FlightAware Approximate
Tue 12:40:00 66.9288 -30.9016 256° West  Level FlightAware Approximate
Tue 12:41:00 66.8988 -31.1924 255° West  Level FlightAware Approximate
Tue 12:42:00 66.8683 -31.4825 255° West  Level FlightAware Approximate
Tue 12:43:00 66.8372 -31.7718 255° West  Level FlightAware Approximate
Tue 12:44:00 66.8056 -32.0605 255° West  Level FlightAware Approximate
Tue 12:45:00 66.7735 -32.3483 254° West  Level FlightAware Approximate
Tue 12:46:00 66.7408 -32.6354 254° West  Level FlightAware Approximate
Tue 12:47:00 66.7077 -32.9218 254° West  Level FlightAware Approximate
Tue 12:48:00 66.6740 -33.2073 254° West  Level FlightAware Approximate
Tue 12:49:00 66.6398 -33.4921 253° West  Level FlightAware Approximate
Tue 12:50:00 66.6051 -33.7761 253° West  Level FlightAware Approximate
Tue 12:51:00 66.5699 -34.0593 253° West  Level FlightAware Approximate
Tue 12:52:00 66.5341 -34.3417 252° West  Level FlightAware Approximate
Tue 12:53:00 66.4979 -34.6232 252° West  Level FlightAware Approximate
Tue 12:54:00 66.4612 -34.9040 252° West  Level FlightAware Approximate
Tue 12:55:00 66.4239 -35.1839 252° West  Level FlightAware Approximate
Tue 12:56:00 66.3862 -35.4630 251° West  Level FlightAware Approximate
Tue 12:57:00 66.3479 -35.7412 251° West  Level FlightAware Approximate
Tue 12:58:00 66.3092 -36.0186 251° West  Level FlightAware Approximate
Tue 12:59:00 66.2700 -36.2951 251° West  Level FlightAware Approximate
Tue 13:00:00 66.2302 -36.5708 250° West  Level FlightAware Approximate
Tue 13:01:00 66.1900 -36.8456 250° West  Level FlightAware Approximate
Tue 13:02:00 66.1493 -37.1194 250° West  Level FlightAware Approximate
Tue 13:03:00 66.1081 -37.3925 250° West  Level FlightAware Approximate
Tue 13:04:00 66.0665 -37.6646 249° West  Level FlightAware Approximate
Tue 13:05:00 66.0244 -37.9358 249° West  Level FlightAware Approximate
Tue 13:06:00 65.9817 -38.2062 249° West  Level FlightAware Approximate
Tue 13:07:00 65.9387 -38.4756 249° West  Level FlightAware Approximate
Tue 13:08:00 65.8951 -38.7441 248° West  Level FlightAware Approximate
Tue 13:09:00 65.8511 -39.0117 248° West  Level FlightAware Approximate
Tue 13:10:00 65.8066 -39.2784 248° West  Level FlightAware Approximate
Tue 13:11:00 65.7617 -39.5442 248° West  Level FlightAware Approximate
Tue 13:12:00 65.7162 -39.8090 247° West  Level FlightAware Approximate
Tue 13:13:00 65.6704 -40.0729 247° West  Level FlightAware Approximate
Tue 13:14:00 65.6240 -40.3358 247° West  Level FlightAware Approximate
Tue 13:15:00 65.5773 -40.5979 247° West  Level FlightAware Approximate
Tue 13:16:00 65.5301 -40.8589 247° West  Level FlightAware Approximate
Tue 13:17:00 65.4824 -41.1190 246° West  Level FlightAware Approximate
Tue 13:18:00 65.4343 -41.3782 246° West  Level FlightAware Approximate
Tue 13:19:00 65.3857 -41.6364 246° West  Level FlightAware Approximate
Tue 13:20:00 65.3367 -41.8937 246° West  Level FlightAware Approximate
Tue 13:21:00 65.2873 -42.1500 245° Southwest  Level FlightAware Approximate
Tue 13:22:00 65.2374 -42.4053 245° Southwest  Level FlightAware Approximate
Tue 13:23:00 65.1872 -42.6597 245° Southwest  Level FlightAware Approximate
Tue 13:24:00 65.1364 -42.9131 245° Southwest  Level FlightAware Approximate
Tue 13:25:00 65.0853 -43.1655 244° Southwest  Level FlightAware Approximate
Tue 13:26:00 65.0337 -43.4170 244° Southwest  Level FlightAware Approximate
Tue 13:27:00 64.9817 -43.6675 244° Southwest  Level FlightAware Approximate
Tue 13:28:00 64.9293 -43.9170 244° Southwest  Level FlightAware Approximate
Tue 13:29:00 64.8765 -44.1655 243° Southwest  Level FlightAware Approximate
Tue 13:30:00 64.8232 -44.4131 243° Southwest  Level FlightAware Approximate
Tue 13:31:00 64.7696 -44.6596 243° Southwest  Level FlightAware Approximate
Tue 13:32:00 64.7155 -44.9052 243° Southwest  Level FlightAware Approximate
Tue 13:33:00 64.6611 -45.1498 243° Southwest  Level FlightAware Approximate
Tue 13:34:00 64.6062 -45.3935 242° Southwest  Level FlightAware Approximate
Tue 13:35:00 64.5510 -45.6361 242° Southwest  Level FlightAware Approximate
Tue 13:36:00 64.4953 -45.8777 242° Southwest  Level FlightAware Approximate
Tue 13:37:00 64.4392 -46.1184 242° Southwest  Level FlightAware Approximate
Tue 13:38:00 64.3828 -46.3581 242° Southwest  Level FlightAware Approximate
Tue 13:39:00 64.3260 -46.5968 241° Southwest  Level FlightAware Approximate
Tue 13:40:00 64.2687 -46.8345 241° Southwest  Level FlightAware Approximate
Tue 13:41:00 64.2111 -47.0712 241° Southwest  Level FlightAware Approximate
Tue 13:42:00 64.1531 -47.3069 241° Southwest  Level FlightAware Approximate
Tue 13:43:00 64.0948 -47.5417 240° Southwest  Level FlightAware Approximate
Tue 13:44:00 64.0360 -47.7755 240° Southwest  Level FlightAware Approximate
Tue 13:45:00 63.9769 -48.0082 240° Southwest  Level FlightAware Approximate
Tue 13:46:00 63.9174 -48.2400 240° Southwest  Level FlightAware Approximate
Tue 13:47:00 63.8576 -48.4708 240° Southwest  Level FlightAware Approximate
Tue 13:48:00 63.7973 -48.7007 239° Southwest  Level FlightAware Approximate
Tue 13:49:00 63.7367 -48.9295 239° Southwest  Level FlightAware Approximate
Tue 13:50:00 63.6758 -49.1574 239° Southwest  Level FlightAware Approximate
Tue 13:51:00 63.6145 -49.3843 239° Southwest  Level FlightAware Approximate
Tue 13:52:00 63.5528 -49.6101 239° Southwest  Level FlightAware Approximate
Tue 13:53:00 63.4908 -49.8351 238° Southwest  Level FlightAware Approximate
Tue 13:54:00 63.4284 -50.0590 238° Southwest  Level FlightAware Approximate
Tue 13:55:00 63.3657 -50.2820 238° Southwest  Level FlightAware Approximate
Tue 13:56:00 63.3027 -50.5040 238° Southwest  Level FlightAware Approximate
Tue 13:57:00 63.2392 -50.7250 238° Southwest  Level FlightAware Approximate
Tue 13:58:00 63.1755 -50.9451 237° Southwest  Level FlightAware Approximate
Tue 13:59:00 63.1114 -51.1642 237° Southwest  Level FlightAware Approximate
Tue 14:00:00 63.0470 -51.3823 237° Southwest  Level FlightAware Approximate
Tue 14:01:00 62.9822 -51.5994 237° Southwest  Level FlightAware Approximate
Tue 14:02:00 62.9171 -51.8156 237° Southwest  Level FlightAware Approximate
Tue 14:03:00 62.8517 -52.0308 236° Southwest  Level FlightAware Approximate
Tue 14:04:00 62.7860 -52.2451 236° Southwest  Level FlightAware Approximate
Tue 14:05:00 62.7199 -52.4584 236° Southwest  Level FlightAware Approximate
Tue 14:06:00 62.6535 -52.6708 236° Southwest  Level FlightAware Approximate
Tue 14:07:00 62.5868 -52.8822 236° Southwest  Level FlightAware Approximate
Tue 14:08:00 62.5198 -53.0927 235° Southwest  Level FlightAware Approximate
Tue 14:09:00 62.4524 -53.3022 235° Southwest  Level FlightAware Approximate
Tue 14:10:00 62.3848 -53.5107 235° Southwest  Level FlightAware Approximate
Tue 14:11:00 62.3168 -53.7184 235° Southwest  Level FlightAware Approximate
Tue 14:12:00 62.2485 -53.9250 235° Southwest  Level FlightAware Approximate
Tue 14:13:00 62.1800 -54.1308 235° Southwest  Level FlightAware Approximate
Tue 14:14:00 62.1111 -54.3356 234° Southwest  Level FlightAware Approximate
Tue 14:15:00 62.0419 -54.5395 234° Southwest  Level FlightAware Approximate
Tue 14:16:00 61.9724 -54.7425 234° Southwest  Level FlightAware Approximate
Tue 14:17:00 61.9026 -54.9445 234° Southwest  Level FlightAware Approximate
Tue 14:18:00 61.8101 -55.0994 233° Southwest  Level Estimated
Tue 14:19:00 61.7419 -55.3028 235° Southwest  Level FlightAware Approximate
Tue 14:20:00 61.6734 -55.5054 235° Southwest  Level FlightAware Approximate
Tue 14:21:00 61.6047 -55.7070 234° Southwest  Level FlightAware Approximate
Tue 14:22:00 61.5356 -55.9078 234° Southwest  Level FlightAware Approximate
Tue 14:23:00 61.4663 -56.1077 234° Southwest  Level FlightAware Approximate
Tue 14:24:00 61.3966 -56.3066 234° Southwest  Level FlightAware Approximate
Tue 14:25:00 61.3267 -56.5047 234° Southwest  Level FlightAware Approximate
Tue 14:26:00 61.2565 -56.7019 234° Southwest  Level FlightAware Approximate
Tue 14:27:00 61.1617 -56.8474 232° Southwest  Level Estimated
Tue 14:28:00 61.0922 -57.0446 234° Southwest  Level FlightAware Approximate
Tue 14:29:00 61.0223 -57.2409 234° Southwest  Level FlightAware Approximate
Tue 14:30:00 60.9523 -57.4364 234° Southwest  Level FlightAware Approximate
Tue 14:31:00 60.8819 -57.6311 233° Southwest  Level FlightAware Approximate
Tue 14:32:00 60.8112 -57.8248 233° Southwest  Level FlightAware Approximate
Tue 14:33:00 60.7403 -58.0178 233° Southwest  Level FlightAware Approximate
Tue 14:34:00 60.6691 -58.2098 233° Southwest  Level FlightAware Approximate
Tue 14:34:21 63.2833 -56.2667 215° Southwest 450 518 37,000  Level Gander Center
Tue 14:35:00 60.5720 -58.3476 215° Southwest  Level Estimated
Tue 14:35:23 63.2167 -56.5000 238° Southwest 450 518 37,000  Level Gander Center
Tue 14:36:00 60.4972 -58.4531 215° Southwest  Level Estimated
Tue 14:36:23 63.1333 -56.7333 232° Southwest 450 518 37,000  Level Gander Center
Tue 14:37:00 60.4223 -58.5581 215° Southwest  Level Estimated
Tue 14:37:23 63.0500 -56.9333 227° Southwest 450 518 37,000  Level Gander Center
Tue 14:38:00 60.3473 -58.6626 215° Southwest  Level Estimated
Tue 14:38:23 62.9833 -57.1667 238° Southwest 450 518 37,000  Level Gander Center
Tue 14:39:00 60.2723 -58.7667 215° Southwest  Level Estimated
Tue 14:39:23 62.9167 -57.3500 231° Southwest 450 518 37,000  Level Gander Center
Tue 14:47:52 62.2833 -59.2000 231° Southwest 320 368 37,000  Level Montreal Center
Tue 14:48:32 62.2333 -59.3667 237° Southwest 400 460 37,000  Level Gander Center
Tue 14:49:00 62.2879 -59.1026 233° Southwest  Level FlightAware Approximate
Tue 14:49:32 62.1500 -59.5500 226° Southwest 440 506 37,000  Level Gander Center
Tue 14:50:00 62.2150 -59.3025 232° Southwest  Level FlightAware Approximate
Tue 14:50:32 62.0667 -59.8333 238° Southwest 450 518 37,000  Level Gander Center
Tue 14:51:00 62.1418 -59.5015 232° Southwest  Level FlightAware Approximate
Tue 14:51:32 61.9833 -59.9833 220° Southwest 450 518 37,000  Level Gander Center
Tue 14:52:00 62.0683 -59.6995 232° Southwest  Level FlightAware Approximate
Tue 14:52:32 61.9000 -60.1833 229° Southwest 450 518 37,000  Level Gander Center
Tue 14:53:00 61.9945 -59.8965 231° Southwest  Level FlightAware Approximate
Tue 14:53:32 61.8167 -60.4000 231° Southwest 450 518 37,000  Level Gander Center
Tue 14:54:32 61.7667 -60.5833 240° Southwest 440 506 37,000  Level Gander Center
Tue 14:55:32 61.6833 -60.8000 231° Southwest 450 518 37,000  Level Gander Center
Tue 14:56:32 61.6000 -61.0000 229° Southwest 450 518 37,000  Level Gander Center
Tue 14:57:32 61.5167 -61.1833 226° Southwest 450 518 37,000  Level Gander Center
Tue 14:58:32 61.4333 -61.3833 229° Southwest 450 518 37,000  Level Gander Center
Tue 14:59:32 61.3667 -61.6000 237° Southwest 450 518 37,000  Level Gander Center
Tue 15:00:32 61.2833 -61.8000 229° Southwest 450 518 37,000  Level Gander Center
Tue 15:01:32 61.2000 -61.9667 224° Southwest 440 506 37,000  Level Gander Center
Tue 15:02:32 61.1167 -62.1833 232° Southwest 450 518 37,000  Level Gander Center
Tue 15:03:32 61.0500 -62.3833 236° Southwest 440 506 37,000  Level Gander Center
Tue 15:04:32 60.9667 -62.5500 224° Southwest 440 506 37,000  Level Gander Center
Tue 15:05:32 60.8667 -62.7500 224° Southwest 440 506 37,000  Level Gander Center
Tue 15:06:32 60.7833 -62.9500 230° Southwest 420 483 37,000 450 Level Gander Center
Tue 15:07:32 60.7000 -63.1500 230° Southwest 440 506 37,900 500 Climbing Gander Center
Tue 15:08:32 60.6167 -63.3167 224° Southwest 440 506 38,000 50 Climbing Gander Center
Tue 15:09:32 60.5500 -63.5167 236° Southwest 440 506 38,000  Level Gander Center
Tue 15:10:32 60.4667 -63.7167 230° Southwest 440 506 38,000  Level Gander Center
Tue 15:11:32 60.3833 -63.8667 222° Southwest 440 506 38,000  Level Gander Center
Tue 15:12:32 60.3000 -64.0667 230° Southwest 430 495 38,000  Level Gander Center
Tue 15:13:32 60.2167 -64.2333 225° Southwest 430 495 38,000  Level Gander Center
Tue 15:14:32 60.1500 -64.4167 234° Southwest 430 495 38,000  Level Gander Center
Tue 15:15:32 60.0667 -64.5833 225° Southwest 440 506 38,000  Level Gander Center
Tue 15:16:32 59.9667 -64.7667 223° Southwest 440 506 38,000  Level Gander Center
Tue 15:17:32 59.8833 -64.9333 225° Southwest 440 506 38,000  Level Gander Center
Tue 15:18:32 59.8000 -65.1167 228° Southwest 430 495 38,000  Level Gander Center
Tue 15:19:32 59.7333 -65.3167 237° Southwest 440 506 38,000  Level Gander Center
Tue 15:20:32 59.6333 -65.4667 217° Southwest 440 506 38,000  Level Gander Center
Tue 15:32:13 58.6500 -67.4333 224° Southwest 430 495 38,000  Level Gander Center
Tue 15:32:52 58.6000 -67.4667 199° South 430 495 38,000  Level Montreal Center
Tue 15:33:00 58.8797 -66.9500 225° Southwest  Level FlightAware Approximate
Tue 15:33:32 58.5333 -67.6333 233° Southwest 430 495 38,000  Level Gander Center
Tue 15:34:00 58.8150 -67.0729 225° Southwest  Level FlightAware Approximate
Tue 15:34:32 58.4667 -67.7833 230° Southwest 430 495 38,000  Level Gander Center
Tue 15:35:00 58.7501 -67.1953 224° Southwest  Level FlightAware Approximate
Tue 15:35:32 58.3667 -67.9667 224° Southwest 440 506 38,000  Level Gander Center
Tue 15:36:00 58.6852 -67.3173 224° Southwest  Level FlightAware Approximate
Tue 15:36:32 58.2833 -68.1000 220° Southwest 440 506 38,000  Level Gander Center
Tue 15:37:00 58.6201 -67.4388 224° Southwest  Level FlightAware Approximate
Tue 15:37:32 58.2000 -68.2833 229° Southwest 440 506 38,000  Level Gander Center
Tue 15:38:32 58.1167 -68.4167 220° Southwest 420 483 38,000  Level Gander Center
Tue 15:39:48 57.9833 -68.5333 205° Southwest 440 506 38,000  Level Montreal Center
Tue 15:40:48 57.9000 -68.6667 220° Southwest 430 495 38,000  Level Montreal Center
Tue 15:41:48 57.8000 -68.8167 219° Southwest 430 495 38,000  Level Montreal Center
Tue 15:48:32 57.1500 -69.7167 215° Southwest 430 495 38,000  Level Gander Center
Tue 15:49:32 57.0500 -69.8500 216° Southwest 430 495 38,000  Level Gander Center
Tue 15:50:00 57.1912 -69.6127 216° Southwest  Level FlightAware Approximate
Tue 15:50:32 56.9500 -69.9833 216° Southwest 430 495 38,000  Level Gander Center
Tue 15:51:00 57.1171 -69.7092 215° Southwest  Level FlightAware Approximate
Tue 15:51:32 56.8500 -70.1167 216° Southwest 430 495 38,000  Level Gander Center
Tue 15:52:00 57.0429 -69.8052 215° Southwest  Level FlightAware Approximate
Tue 15:52:32 56.7333 -70.2500 212° Southwest 430 495 38,000  Level Gander Center
Tue 15:53:00 56.9686 -69.9009 215° Southwest  Level FlightAware Approximate
Tue 15:53:32 56.6500 -70.3833 221° Southwest 430 495 38,000  Level Gander Center
Tue 15:54:00 56.8942 -69.9962 215° Southwest  Level FlightAware Approximate
Tue 15:54:32 56.5500 -70.5000 213° Southwest 430 495 38,000  Level Gander Center
Tue 15:55:32 56.4500 -70.6000 209° Southwest 430 495 38,000  Level Gander Center
Tue 15:56:32 56.3500 -70.7333 216° Southwest 430 495 38,000  Level Gander Center
Tue 15:57:32 56.2500 -70.8500 213° Southwest 430 495 38,000  Level Gander Center
Tue 15:58:32 56.1500 -70.9833 217° Southwest 440 506 38,000  Level Gander Center
Tue 15:59:32 56.0333 -71.1000 209° Southwest 440 506 38,000  Level Gander Center
Tue 16:00:32 55.9500 -71.2000 214° Southwest 440 506 38,000  Level Gander Center
Tue 16:01:32 55.8500 -71.3333 217° Southwest 440 506 38,000  Level Gander Center
Tue 16:02:32 55.7500 -71.4500 213° Southwest 440 506 38,000  Level Gander Center
Tue 16:03:32 55.6500 -71.5833 217° Southwest 450 518 38,000  Level Gander Center
Tue 16:04:32 55.5333 -71.7000 210° Southwest 440 506 38,000  Level Gander Center
Tue 16:05:32 55.4500 -71.8167 218° Southwest 440 506 38,000  Level Gander Center
Tue 16:06:32 55.3333 -71.9333 210° Southwest 440 506 38,000  Level Gander Center
Tue 16:07:32 55.2333 -72.0333 210° Southwest 440 506 38,000  Level Gander Center
Tue 16:08:32 55.1333 -72.1833 221° Southwest 440 506 38,000  Level Gander Center
Tue 16:09:32 55.0333 -72.3000 214° Southwest 430 495 38,000  Level Gander Center
Tue 16:10:32 54.9333 -72.4000 210° Southwest 430 495 38,000  Level Gander Center
Tue 16:11:32 54.8333 -72.5167 214° Southwest 430 495 38,000  Level Gander Center
Tue 16:12:32 54.7333 -72.6333 214° Southwest 430 495 38,000  Level Gander Center
Tue 16:13:32 54.6333 -72.7500 214° Southwest 430 495 38,000  Level Gander Center
Tue 16:14:32 54.5333 -72.8333 206° Southwest 440 506 38,000  Level Gander Center
Tue 16:15:48 54.4167 -72.9500 210° Southwest 430 495 38,000  Level Montreal Center
Tue 16:16:48 54.3167 -73.0500 210° Southwest 430 495 38,000  Level Montreal Center
Tue 16:17:48 54.2000 -73.1667 210° Southwest 430 495 38,000  Level Montreal Center
Tue 16:18:48 54.1000 -73.2667 210° Southwest 430 495 38,000  Level Montreal Center
Tue 16:19:48 54.0000 -73.3833 214° Southwest 430 495 38,000  Level Montreal Center
Tue 16:20:48 53.8833 -73.5000 211° Southwest 430 495 38,000  Level Montreal Center
Tue 16:21:48 53.7833 -73.6000 211° Southwest 430 495 38,000  Level Montreal Center
Tue 16:22:48 53.6833 -73.7167 215° Southwest 430 495 38,000  Level Montreal Center
Tue 16:23:48 53.5833 -73.8000 206° Southwest 430 495 38,000  Level Montreal Center
Tue 16:24:48 53.4667 -73.9000 207° Southwest 440 506 38,000  Level Montreal Center
Tue 16:25:48 53.3500 -73.9833 203° Southwest 440 506 38,000  Level Montreal Center
Tue 16:26:48 53.2500 -74.0833 211° Southwest 440 506 38,000  Level Montreal Center
Tue 16:27:48 53.1333 -74.1667 203° Southwest 440 506 38,000  Level Montreal Center
Tue 16:28:48 53.0333 -74.2500 207° Southwest 440 506 38,000  Level Montreal Center
Tue 16:29:48 52.9167 -74.3500 207° Southwest 440 506 38,000  Level Montreal Center
Tue 16:30:48 52.8333 -74.4333 211° Southwest 440 506 38,000  Level Montreal Center
Tue 16:31:48 52.7167 -74.5167 203° Southwest 440 506 38,000  Level Montreal Center
Tue 16:32:48 52.6000 -74.6333 211° Southwest 440 506 38,000  Level Montreal Center
Tue 16:33:48 52.4833 -74.7167 204° Southwest 440 506 38,000  Level Montreal Center
Tue 16:34:48 52.3667 -74.8000 204° Southwest 440 506 38,000  Level Montreal Center
Tue 16:35:48 52.2667 -74.8667 202° Southwest 420 483 38,000  Level Montreal Center
Tue 16:36:48 52.1500 -74.9833 212° Southwest 440 506 38,000  Level Montreal Center
Tue 16:37:48 52.0333 -75.0667 204° Southwest 440 506 38,000  Level Montreal Center
Tue 16:38:48 51.9167 -75.1500 204° Southwest 450 518 38,000  Level Montreal Center
Tue 16:39:48 51.8000 -75.2333 204° Southwest 440 506 38,000  Level Montreal Center
Tue 16:40:48 51.7000 -75.3167 207° Southwest 440 506 38,000  Level Montreal Center
Tue 16:41:48 51.5833 -75.4167 208° Southwest 440 506 38,000  Level Montreal Center
Tue 16:42:48 51.4667 -75.4833 200° South 440 506 38,000  Level Montreal Center
Tue 16:43:48 51.3667 -75.5833 212° Southwest 440 506 38,000  Level Montreal Center
Tue 16:44:48 51.2500 -75.6667 204° Southwest 440 506 38,000  Level Montreal Center
Tue 16:45:48 51.1333 -75.7500 204° Southwest 430 495 38,000  Level Montreal Center
Tue 16:46:48 51.0333 -75.8333 208° Southwest 430 495 38,000  Level Montreal Center
Tue 16:47:48 50.9333 -75.9167 208° Southwest 430 495 38,000  Level Montreal Center
Tue 16:48:48 50.8167 -76.0000 204° Southwest 430 495 38,000  Level Montreal Center
Tue 16:49:48 50.7000 -76.0667 200° South 430 495 38,000  Level Montreal Center
Tue 16:50:48 50.6000 -76.1500 208° Southwest 430 495 38,000  Level Montreal Center
Tue 16:51:48 50.4833 -76.2333 204° Southwest 430 495 38,000  Level Montreal Center
Tue 16:52:48 50.3667 -76.3000 200° South 440 506 38,000  Level Montreal Center
Tue 16:53:48 50.2667 -76.3833 208° Southwest 440 506 38,000  Level Montreal Center
Tue 16:54:48 50.1500 -76.4667 205° Southwest 440 506 38,000  Level Montreal Center
Tue 16:55:48 50.0333 -76.5500 205° Southwest 440 506 38,000  Level Montreal Center
Tue 16:56:48 49.9167 -76.6167 200° South 440 506 38,000  Level Montreal Center
Tue 16:57:48 49.8000 -76.7167 209° Southwest 440 506 38,000  Level Montreal Center
Tue 16:58:48 49.7000 -76.8000 208° Southwest 440 506 38,000  Level Montreal Center
Tue 16:59:48 49.5833 -76.8667 200° South 450 518 38,000  Level Montreal Center
Tue 17:00:48 49.4667 -76.9500 205° Southwest 440 506 38,000  Level Montreal Center
Tue 17:01:48 49.3500 -77.0167 200° South 470 541 38,000  Level Montreal Center
Tue 17:02:48 49.2500 -77.1000 209° Southwest 430 495 38,000  Level Montreal Center
Tue 17:03:48 49.1333 -77.1667 201° Southwest 440 506 38,000  Level Montreal Center
Tue 17:04:48 49.0167 -77.2500 205° Southwest 440 506 38,000  Level Montreal Center
Tue 17:05:48 48.9000 -77.3167 201° Southwest 440 506 38,000  Level Montreal Center
Tue 17:23:48 46.8167 -78.6167 201° Southwest 450 518 38,000  Level Montreal Center
Tue 17:24:00 47.3742 -78.2733 200° South  Level FlightAware Approximate
Tue 17:24:59 46.6667 -78.6667 193° South 450 518 38,000  Level Toronto Center
Tue 17:25:00 47.2890 -78.3200 200° South  Level FlightAware Approximate
Tue 17:26:00 47.2037 -78.3665 200° South  Level FlightAware Approximate
Tue 17:27:00 47.1184 -78.4129 200° South  Level FlightAware Approximate
Tue 17:28:00 47.0336 -78.4609 204° Southwest  Level FlightAware Approximate
Tue 17:29:00 46.9242 -78.5257 201° Southwest  Level FlightAware Approximate
Tue 17:30:47 45.9952 -79.0504 193° South 452 520 38,000  Level FlightAware ADS-B
Tue 17:31:52 45.8684 -79.1186 201° Southwest 453 521 38,000  Level FlightAware ADS-B
Tue 17:35:19 45.4631 -79.3348 201° Southwest 452 520 38,000  Level FlightAware ADS-B
Tue 17:36:40 45.4518 -79.3407 200° South 450 518 38,000  Level FlightAware ADS-B
Tue 17:37:22 45.4518 -79.3407 200° South 449 517 38,000  Level FlightAware ADS-B
Tue 17:39:17 44.9992 -79.5780 200° South 449 517 38,000  Level FlightAware ADS-B
Tue 17:39:49 44.9992 -79.5780 200° South 450 518 38,000  Level FlightAware ADS-B
Tue 17:44:42 44.4444 -79.9170 204° Southwest 443 510 38,000  Level FlightAware ADS-B
Tue 17:45:42 44.2868 -80.0590 213° Southwest 444 511 38,000  Level FlightAware ADS-B
Tue 17:46:20 44.2223 -80.1167 213° Southwest 444 511 38,000  Level FlightAware ADS-B
Tue 17:46:54 44.1637 -80.1689 213° Southwest 444 511 38,000  Level FlightAware ADS-B
Tue 17:47:41 44.0879 -80.2363 213° Southwest 443 510 38,000  Level FlightAware ADS-B
Tue 17:48:20 44.0205 -80.2959 213° Southwest 443 510 38,000  Level FlightAware ADS-B
Tue 17:49:00 43.9458 -80.3621 212° Southwest 444 511 38,000  Level FlightAware ADS-B
Tue 17:49:42 43.8766 -80.4230 212° Southwest 446 513 38,000  Level FlightAware ADS-B
Tue 17:50:23 43.8021 -80.4885 212° Southwest 447 514 38,000  Level FlightAware ADS-B
Tue 17:50:54 43.7516 -80.5329 212° Southwest 447 514 38,000  Level FlightAware ADS-B
Tue 17:51:33 43.6790 -80.5964 212° Southwest 447 514 38,000  Level FlightAware ADS-B
Tue 17:52:22 43.5984 -80.6666 212° Southwest 448 516 38,000  Level FlightAware ADS-B
Tue 17:52:53 43.5405 -80.7169 212° Southwest 449 517 38,000  Level FlightAware ADS-B
Tue 17:53:35 43.4683 -80.7795 212° Southwest 449 517 38,000  Level FlightAware ADS-B
Tue 17:54:22 43.3833 -80.8529 212° Southwest 452 520 38,000  Level FlightAware ADS-B
Tue 17:54:55 43.4191 -80.8221 32° Northeast 452 520 38,000  Level FlightAware ADS-B
Tue 17:55:43 43.2411 -80.9753 212° Southwest 452 520 38,000  Level FlightAware ADS-B
Tue 17:56:22 43.1724 -81.0343 212° Southwest 452 520 38,000  Level FlightAware ADS-B
Tue 17:57:02 43.1084 -81.0890 212° Southwest 452 520 38,000  Level FlightAware ADS-B
Tue 17:57:41 43.0307 -81.1520 211° Southwest 454 522 38,000  Level FlightAware ADS-B
Tue 17:58:22 42.9508 -81.2011 204° Southwest 456 525 38,000  Level FlightAware ADS-B
Tue 17:59:01 42.8764 -81.2487 205° Southwest 456 525 38,000  Level FlightAware ADS-B
Tue 17:59:37 42.8416 -81.2703 205° Southwest 457 526 38,000  Level FlightAware ADS-B
Tue 18:00:20 42.7470 -81.3285 204° Southwest 455 524 38,000  Level FlightAware ADS-B
Tue 18:01:00 42.6567 -81.3840 204° Southwest 454 522 38,000  Level FlightAware ADS-B
Tue 18:02:03 42.5325 -81.4600 204° Southwest 456 525 38,000  Level FlightAware ADS-B
Tue 18:04:10 42.2896 -81.6073 204° Southwest 457 526 38,000  Level FlightAware ADS-B
Tue 18:04:59 42.1833 -81.6500 204° Southwest 460 529 38,000  Level Toronto Center
Tue 18:05:59 42.0833 -81.7167 206° Southwest 460 529 38,000  Level Toronto Center
Tue 18:07:13 41.9411 -81.8169 208° Southwest 459 528 38,000  Level Cleveland Center
Tue 18:08:15 41.8231 -81.8872 204° Southwest 463 533 38,000  Level Cleveland Center
Tue 18:09:17 41.7069 -81.9572 204° Southwest 460 529 38,000  Level Cleveland Center
Tue 18:10:19 41.5919 -82.0244 204° Southwest 454 522 38,000  Level Cleveland Center
Tue 18:11:21 41.4756 -82.0936 204° Southwest 457 526 38,000  Level Cleveland Center
Tue 18:12:23 41.3322 -82.1714 202° Southwest 463 533 38,000  Level Cleveland Center
Tue 18:13:25 41.2058 -82.2161 195° South 469 540 38,000  Level Cleveland Center
Tue 18:14:27 41.0825 -82.2606 195° South 468 539 38,000  Level Cleveland Center
Tue 18:15:29 40.9567 -82.3044 195° South 469 540 38,000  Level Cleveland Center
Tue 18:16:29 40.8319 -82.3508 196° South 466 536 38,000  Level Indianapolis Center
Tue 18:17:31 40.7072 -82.3950 195° South 464 534 38,000  Level Indianapolis Center
Tue 18:23:45 39.8910 -82.6060 195° South 487 560 38,000  Level FlightAware ADS-B
Tue 18:24:24 39.7901 -82.6129 183° South 486 559 38,000  Level FlightAware ADS-B
Tue 18:25:05 39.7045 -82.6187 183° South 484 557 38,000  Level FlightAware ADS-B
Tue 18:25:44 39.6142 -82.6246 183° South 482 555 38,000  Level FlightAware ADS-B
Tue 18:26:25 39.5207 -82.6310 183° South 482 555 38,000  Level FlightAware ADS-B
Tue 18:27:06 39.4324 -82.6370 183° South 483 556 38,000  Level FlightAware ADS-B
Tue 18:27:46 39.3413 -82.6430 183° South 485 558 38,000  Level FlightAware ADS-B
Tue 18:28:26 39.2519 -82.6490 183° South 486 559 38,000  Level FlightAware ADS-B
Tue 18:29:06 39.1619 -82.6550 183° South 486 559 38,000  Level FlightAware ADS-B
Tue 18:29:46 39.1073 -82.6587 183° South 492 566 38,000  Level FlightAware ADS-B
Tue 18:30:25 38.9815 -82.6492 177° South 500 575 38,000  Level FlightAware ADS-B
Tue 18:31:05 38.8893 -82.6360 174° South 501 577 38,000  Level FlightAware ADS-B
Tue 18:31:45 38.7967 -82.6224 173° South 502 578 38,000  Level FlightAware ADS-B
Tue 18:32:17 38.7233 -82.6116 173° South 502 578 38,000  Level FlightAware ADS-B
Tue 18:33:01 38.6289 -82.5972 186° South 501 577 38,000  Level Indianapolis Center
Tue 18:40:15 37.6833 -82.7586 214° Southwest 476 548 38,000  Level Indianapolis Center
Tue 18:41:17 37.5664 -82.8228 204° Southwest 461 531 38,000  Level Indianapolis Center
Tue 18:48:41 36.7300 -83.3706 208° Southwest 451 519 38,000  Level Atlanta Center
Tue 18:49:32 36.6367 -83.4292 207° Southwest 459 528 38,000  Level Indianapolis Center
Tue 18:50:00 36.8569 -83.2712 207° Southwest  Level FlightAware Approximate
Tue 18:50:34 36.5244 -83.4997 207° Southwest 454 522 38,000  Level Indianapolis Center
Tue 18:51:00 36.7760 -83.3235 207° Southwest  Level FlightAware Approximate
Tue 18:51:36 36.4131 -83.5733 208° Southwest 448 516 38,000  Level Indianapolis Center
Tue 18:52:00 36.6951 -83.3758 207° Southwest  Level FlightAware Approximate
Tue 18:52:38 36.3019 -83.6433 207° Southwest 447 514 38,000  Level Indianapolis Center
Tue 18:53:00 36.6113 -83.4202 208° Southwest  Level FlightAware Approximate
Tue 18:53:40 36.1925 -83.7133 207° Southwest 443 510 38,000  Level Indianapolis Center
Tue 18:54:00 36.5307 -83.4732 208° Southwest  Level FlightAware Approximate
Tue 18:54:41 36.0767 -83.7894 208° Southwest 445 512 38,000  Level Atlanta Center
Tue 18:55:41 35.9664 -83.8567 206° Southwest 445 512 38,000  Level Atlanta Center
Tue 18:57:00 35.8544 -83.8949 192° South  Level FlightAware Approximate
Tue 18:58:41 35.5994 -83.9725 192° South 458 527 38,000  Level Atlanta Center
Tue 19:02:41 35.0839 -84.0947 191° South 470 541 38,000  Level Atlanta Center
Tue 19:03:41 34.9547 -84.1250 191° South 470 541 38,000  Level Atlanta Center
Tue 19:05:41 34.7000 -84.1878 191° South 470 541 38,000  Level Atlanta Center
Tue 19:06:41 34.5581 -84.2178 190° South 470 541 38,000  Level Atlanta Center
Tue 19:07:00 34.8675 -84.1422 191° South  Level FlightAware Approximate
Tue 19:07:41 34.4286 -84.2478 191° South 472 543 38,000  Level Atlanta Center
Tue 19:08:41 34.2992 -84.2778 191° South 477 549 38,000  Level Atlanta Center
Tue 19:09:41 34.1675 -84.3100 191° South 482 555 38,000  Level Atlanta Center
Tue 19:10:41 34.0297 -84.3447 192° South 493 567 38,000  Level Atlanta Center
Tue 19:11:41 33.9064 -84.3717 190° South 481 554 38,000  Level Atlanta Center
Tue 19:12:41 33.7728 -84.4011 190° South 481 554 38,000  Level Atlanta Center
Tue 19:13:41 33.6475 -84.4306 191° South 476 548 38,000  Level Atlanta Center
Tue 19:14:41 33.5119 -84.4375 182° South 482 555 38,000  Level Atlanta Center
Tue 19:15:41 33.3761 -84.4344 179° South 482 555 38,000 -150 Level Atlanta Center
Tue 19:16:41 33.2447 -84.4311 179° South 482 555 37,700 -300 Descending Atlanta Center
Tue 19:17:41 33.1111 -84.4281 179° South 477 549 37,400 -350 Descending Atlanta Center
Tue 19:18:41 32.9775 -84.4275 180° South 477 549 37,000 -400 Descending Atlanta Center
Tue 19:19:41 32.8439 -84.4269 180° South 477 549 36,600 -567 Descending Atlanta Center
Tue 19:21:00 32.7237 -84.4226 178° South  Level FlightAware Approximate
Tue 19:21:41 32.5808 -84.4161 178° South 477 549 35,300  Level Atlanta Center
Tue 19:22:41 32.4453 -84.4131 179° South 483 556 34,300 -850 Descending Atlanta Center
Tue 19:23:41 32.3056 -84.4100 179° South 488 562 33,600 -650 Descending Atlanta Center
Tue 19:24:41 32.1719 -84.4069 179° South 488 562 33,000 -81 Descending Atlanta Center
Tue 19:31:08 31.3038 -84.3885 179° South 486 559 33,000  Level FlightAware ADS-B (KONZ)
Tue 19:32:16 31.1540 -84.3854 179° South 474 545 33,000  Level FlightAware ADS-B (KONZ)
Tue 19:32:54 31.0704 -84.3838 179° South 471 542 33,000  Level FlightAware ADS-B (KONZ)
Tue 19:33:38 30.9826 -84.3822 179° South 467 537 33,000  Level FlightAware ADS-B (KONZ)
Tue 19:34:20 30.8878 -84.3803 179° South 466 536 33,000  Level FlightAware ADS-B (KONZ)
Tue 19:34:58 30.8172 -84.3790 179° South 463 533 33,000  Level FlightAware ADS-B (KONZ)
Tue 19:35:39 30.7238 -84.3772 179° South 465 535 33,000  Level FlightAware ADS-B (KONZ)
Tue 19:36:17 30.6345 -84.3675 175° South 477 549 33,000  Level FlightAware ADS-B (KONZ)
Tue 19:37:00 30.5392 -84.3414 167° South 478 550 33,000  Level FlightAware ADS-B (KONZ)
Tue 19:37:39 30.4579 -84.3055 159° South 481 554 33,000  Level FlightAware ADS-B (KONZ)
Tue 19:38:20 30.3770 -84.2557 152° Southeast 480 552 33,000  Level FlightAware ADS-B (KONZ)
Tue 19:38:59 30.3015 -84.2067 151° Southeast 479 551 33,000  Level FlightAware ADS-B (KONZ)
Tue 19:39:40 30.2325 -84.1619 151° Southeast 477 549 33,000  Level FlightAware ADS-B (KONZ)
Tue 19:40:19 30.1469 -84.1060 151° Southeast 480 552 33,000  Level FlightAware ADS-B (KONZ)
Tue 19:40:56 30.0954 -84.0724 151° Southeast 476 548 33,000  Level FlightAware ADS-B (KONZ)
Tue 19:41:35 30.0010 -84.0110 151° Southeast 474 545 33,000  Level FlightAware ADS-B (KONZ)
Tue 19:42:20 29.9213 -83.9595 151° Southeast 475 547 33,000  Level FlightAware ADS-B (KONZ)
Tue 19:42:52 29.8759 -83.9301 151° Southeast 476 548 33,000  Level FlightAware ADS-B (KONZ)
Tue 19:53:00 28.6939 -83.1753 151° Southeast 471 542 33,000  Level FlightAware ADS-B
Tue 19:53:32 28.6313 -83.1359 151° Southeast 470 541 33,000  Level FlightAware ADS-B
Tue 19:54:46 28.4915 -83.0481 151° Southeast 472 543 33,000  Level FlightAware ADS-B
Tue 19:55:42 28.4187 -83.0024 151° Southeast 471 542 33,000  Level FlightAware ADS-B
Tue 19:56:41 28.2990 -82.9275 151° Southeast 470 541 33,000  Level FlightAware ADS-B
Tue 19:57:20 28.2017 -82.8668 151° Southeast 467 537 33,000  Level FlightAware ADS-B
Tue 19:58:12 28.0988 -82.8028 151° Southeast 465 535 33,000  Level FlightAware ADS-B
Tue 19:59:02 28.0063 -82.7453 151° Southeast 466 536 33,000  Level FlightAware ADS-B
Tue 19:59:37 27.9394 -82.7038 151° Southeast 466 536 33,000  Level FlightAware ADS-B
Tue 20:00:48 27.8061 -82.6172 150° Southeast 464 534 33,000  Level FlightAware ADS-B
Tue 20:01:08 27.7685 -82.6001 158° South 443 510 33,000  Level FlightAware ADS-B
Tue 20:01:28 27.7281 -82.5943 173° South 423 487 33,000  Level FlightAware ADS-B
Tue 20:06:34 27.1163 -82.5816 179° South 433 498 33,000  Level FlightAware ADS-B
Tue 20:08:01 26.9690 -82.5785 179° South 435 501 33,000  Level FlightAware ADS-B
Tue 20:10:27 26.6503 -82.5720 179° South 434 499 33,000  Level FlightAware ADS-B
Tue 20:11:07 26.5712 -82.5704 179° South 435 501 33,000  Level FlightAware ADS-B
Tue 20:11:47 26.4856 -82.5687 179° South 436 502 33,000  Level FlightAware ADS-B
Tue 20:12:28 26.4047 -82.5670 179° South 439 505 33,000  Level FlightAware ADS-B
Tue 20:13:10 26.3177 -82.5652 179° South 440 506 33,000  Level FlightAware ADS-B
Tue 20:13:49 26.2370 -82.5635 179° South 439 505 33,000  Level FlightAware ADS-B
Tue 20:14:31 26.1523 -82.5617 179° South 437 503 33,000  Level FlightAware ADS-B
Tue 20:15:14 26.0853 -82.5604 179° South 437 503 33,000  Level FlightAware ADS-B
Tue 20:15:48 26.0045 -82.5588 179° South 437 503 33,000  Level FlightAware ADS-B
Tue 20:16:20 25.9331 -82.5574 179° South 437 503 33,000  Level FlightAware ADS-B
Tue 20:17:00 25.8520 -82.5557 179° South 436 502 33,000  Level FlightAware ADS-B
Tue 20:17:35 25.7800 -82.5543 179° South 436 502 33,000  Level FlightAware ADS-B
Tue 20:18:21 25.6897 -82.5525 179° South 437 503 33,000  Level FlightAware ADS-B
Tue 20:18:54 25.6332 -82.5513 179° South 435 501 33,000  Level FlightAware ADS-B
Tue 20:19:48 25.5333 -82.5525 179° South 440 506 33,000  Level Miami Center
Tue 20:20:48 25.4103 -82.5511 179° South 440 506 33,000  Level Miami Center
Tue 20:21:48 25.2914 -82.5481 179° South 440 506 33,000  Level Miami Center
Tue 20:22:48 25.1703 -82.5447 179° South 440 506 33,000  Level Miami Center
Tue 20:23:48 25.0453 -82.5433 179° South 440 506 33,000  Level Miami Center
Tue 20:24:48 24.9261 -82.5425 180° South 440 506 33,000  Level Miami Center
Tue 20:25:48 24.8031 -82.5389 178° South 440 506 33,000 -200 Level Miami Center
Tue 20:26:48 24.6842 -82.5358 179° South 440 506 32,600 -1,250 Descending Miami Center
Tue 20:27:48 24.5550 -82.5344 179° South 435 501 30,500 -1,900 Descending Miami Center
Tue 20:28:48 24.4403 -82.5292 178° South 430 495 28,800 -1,700 Descending Miami Center
Tue 20:29:48 24.3256 -82.5286 180° South 418 481 27,100 -1,700 Descending Miami Center
Tue 20:30:48 24.2192 -82.5283 180° South 404 465 25,400 -1,750 Descending Miami Center
Tue 20:31:48 24.1044 -82.5231 178° South 404 465 23,600 -1,700 Descending Miami Center
Tue 20:32:48 23.9961 -82.5206 179° South 404 465 22,000 -1,600 Descending Miami Center
Tue 20:35:00 23.7387 -82.4805 175° South  Level FlightAware Approximate
Tue 20:42:00 22.9891 -82.4091 180° South  Level Estimated
Tue 20:43:00 22.9891 -82.4091 180° South  Level Estimated
Tue 20:44:00 22.9891 -82.4091 180° South  Level Estimated
Tue 20:45:00 22.9891 -82.4091 180° South  Level Estimated
Tue 20:46:00 22.9891 -82.4091 180° South  Level Estimated
Tue 20:47:00 22.9891 -82.4091 180° South  Level Estimated
Tue 20:48:00 22.9891 -82.4091 180° South  Level Estimated
Tue 20:49:00 22.9891 -82.4091 180° South  Level Estimated
Tue 20:50:00 22.9891 -82.4091 180° South  Level Estimated
Tue 20:51:00 22.9891 -82.4091 180° South  Level Estimated
Tue 20:52:00 22.9891 -82.4091 180° South  Level Estimated
Tue 20:53:00 22.9891 -82.4091 180° South  Level Estimated
Tue 20:54:00 22.9891 -82.4091 180° South  Level Estimated
Tue 20:55:00 22.9891 -82.4091 180° South  Level Estimated
Tue 20:56:00 22.9891 -82.4091 180° South  Level Estimated
Tue 20:57:00 22.9891 -82.4091 180° South  Level Estimated
Tue 20:58:00 22.9891 -82.4091 180° South  Level Estimated
Tue 20:59:00 22.9891 -82.4091 180° South  Level Estimated
Tue 21:00:00 22.9891 -82.4091 180° South  Level Estimated
Tue 21:01:00 22.9891 -82.4091 180° South  Level Estimated
Tue 21:02:00 22.9891 -82.4091 180° South  Level Estimated
Tue 21:03:00 22.9891 -82.4091 180° South  Level Estimated
Tue 21:04:00 22.9891 -82.4091 180° South  Level Estimated

Login

Don't have an account? Register now (free) for customized features, flight alerts, and more!